Flight Track Log - Related Links

Times and Time Zones

All times are in EDT time to prevent confusion due to time zone crossing. See the FEX11 flight status page for this flight to view local times or setup timezone preferences in your user account.

Time Position Orientation Groundspeed Altitude Reporting Facility
EDT Latitude Longitude Course Direction KTS MPH feet Rate Location/Type
Mon 05:54:17 AM 52.1667 -106.7500 270° West 160 184 1,900  Level Winnipeg Center
Mon 05:55:17 AM 52.1667 -106.8333 270° West 210 242 4,600 2,550 Climbing Winnipeg Center
Mon 05:56:17 AM 52.1000 -106.8167 171° South 270 311 7,000 2,350 Climbing Winnipeg Center
Mon 05:57:17 AM 52.0667 -106.7000 115° Southeast 310 357 9,300 1,800 Climbing Winnipeg Center
Mon 05:58:17 AM 52.0500 -106.5333 99° East 360 414 10,600 1,350 Climbing Winnipeg Center
Mon 05:59:17 AM 52.0167 -106.3667 108° East 400 460 12,000 1,950 Climbing Winnipeg Center
Mon 06:00:17 AM 52.0000 -106.2000 99° East 400 460 14,500 2,450 Climbing Winnipeg Center
Mon 06:01:17 AM 51.9500 -106.0333 116° Southeast 390 449 16,900 2,000 Climbing Winnipeg Center
Mon 06:02:17 AM 51.9333 -105.8667 99° East 400 460 18,500 1,600 Climbing Winnipeg Center
Mon 06:03:17 AM 51.9000 -105.6833 106° East 410 472 20,100 1,650 Climbing Winnipeg Center
Mon 06:04:17 AM 51.8667 -105.4833 105° East 420 483 21,800 1,700 Climbing Winnipeg Center
Mon 06:05:17 AM 51.8167 -105.3167 116° Southeast 420 483 23,500 1,600 Climbing Winnipeg Center
Mon 06:06:17 AM 51.8000 -105.1333 98° East 420 483 25,000 1,250 Climbing Winnipeg Center
Mon 06:07:17 AM 51.7667 -104.9500 106° East 430 495 26,000 900 Climbing Winnipeg Center
Mon 06:08:17 AM 51.7333 -104.7667 106° East 440 506 26,800 1,050 Climbing Winnipeg Center
Mon 06:09:17 AM 51.7000 -104.5667 105° East 460 529 28,100 1,450 Climbing Winnipeg Center
Mon 06:10:17 AM 51.6500 -104.3667 112° Southeast 460 529 29,700 1,500 Climbing Winnipeg Center
Mon 06:11:17 AM 51.6167 -104.1667 105° East 440 506 31,100 1,250 Climbing Winnipeg Center
Mon 06:12:17 AM 51.5833 -103.9833 106° East 440 506 32,200 850 Climbing Winnipeg Center
Mon 06:13:17 AM 51.5333 -103.8000 114° Southeast 450 518 32,800 650 Climbing Winnipeg Center
Mon 06:14:17 AM 51.5000 -103.5833 104° East 460 529 33,500 800 Climbing Winnipeg Center
Mon 06:15:17 AM 51.4667 -103.3833 105° East 460 529 34,400 950 Climbing Winnipeg Center
Mon 06:16:17 AM 51.4167 -103.2000 114° Southeast 460 529 35,400 650 Climbing Winnipeg Center
Mon 06:17:17 AM 51.3833 -103.0000 105° East 470 541 35,700 450 Climbing Winnipeg Center
Mon 06:18:17 AM 51.3333 -102.7833 110° East 470 541 36,300 600 Climbing Winnipeg Center
Mon 06:19:17 AM 51.3000 -102.5833 105° East 470 541 36,900 350 Climbing Winnipeg Center
Mon 06:20:17 AM 51.2667 -102.4000 106° East 480 552 37,000 50 Climbing Winnipeg Center
Mon 06:21:17 AM 51.2167 -102.1833 110° East 490 564 37,000  Level Winnipeg Center
Mon 06:22:17 AM 51.1667 -101.9833 112° Southeast 510 587 37,000  Level Winnipeg Center
Mon 06:23:17 AM 51.1167 -101.7333 108° East 520 598 37,000  Level Winnipeg Center
Mon 06:24:17 AM 51.0667 -101.5167 110° East 520 598 37,000  Level Winnipeg Center
Mon 06:25:17 AM 51.0167 -101.3000 110° East 530 610 37,000  Level Winnipeg Center
Mon 06:26:17 AM 50.9667 -101.0833 110° East 540 621 37,000  Level Winnipeg Center
Mon 06:27:17 AM 50.9167 -100.8667 110° East 540 621 37,000  Level Winnipeg Center
Mon 06:28:17 AM 50.8667 -100.6333 109° East 540 621 37,000  Level Winnipeg Center
Mon 06:29:17 AM 50.8167 -100.4167 110° East 540 621 37,000  Level Winnipeg Center
Mon 06:30:17 AM 50.7500 -100.1667 113° Southeast 550 633 37,000  Level Winnipeg Center
Mon 06:31:17 AM 50.7167 -99.9500 104° East 550 633 37,000  Level Winnipeg Center
Mon 06:32:17 AM 50.6500 -99.7167 114° Southeast 550 633 37,000  Level Winnipeg Center
Mon 06:33:17 AM 50.6000 -99.5000 110° East 560 644 37,000 400 Level Winnipeg Center
Mon 06:34:17 AM 50.5500 -99.2833 110° East 550 633 37,800 600 Climbing Winnipeg Center
Mon 06:35:17 AM 50.4833 -99.0500 114° Southeast 540 621 38,200 350 Climbing Winnipeg Center
Mon 06:36:17 AM 50.4333 -98.8333 110° East 540 621 38,500 400 Climbing Winnipeg Center
Mon 06:37:17 AM 50.3833 -98.6167 110° East 540 621 39,000 250 Climbing Winnipeg Center
Mon 06:38:17 AM 50.3333 -98.3833 108° East 530 610 39,000  Level Winnipeg Center
Mon 06:39:17 AM 50.3000 -98.1667 103° East 530 610 39,000  Level Winnipeg Center
Mon 06:40:17 AM 50.2667 -97.9333 103° East 530 610 39,000  Level Winnipeg Center
Mon 06:41:17 AM 50.2333 -97.7167 103° East 530 610 39,000  Level Winnipeg Center
Mon 06:42:17 AM 50.1833 -97.4833 108° East 530 610 39,000  Level Winnipeg Center
Mon 06:43:17 AM 50.1500 -97.2833 105° East 530 610 39,000  Level Winnipeg Center
Mon 06:44:17 AM 50.1000 -97.0667 110° East 530 610 39,000  Level Winnipeg Center
Mon 06:45:17 AM 50.0500 -96.8333 108° East 530 610 39,000  Level Winnipeg Center
Mon 06:46:17 AM 50.0167 -96.6000 102° East 530 610 39,000  Level Winnipeg Center
Mon 06:47:17 AM 49.9667 -96.4000 111° Southeast 530 610 39,000  Level Winnipeg Center
Mon 06:48:17 AM 49.9333 -96.1667 102° East 530 610 39,000  Level Winnipeg Center
Mon 06:49:17 AM 49.8667 -95.9500 115° Southeast 530 610 39,000  Level Winnipeg Center
Mon 06:50:17 AM 49.8167 -95.7167 108° East 530 610 39,000  Level Winnipeg Center
Mon 06:51:17 AM 49.7833 -95.5167 104° East 530 610 39,000  Level Winnipeg Center
Mon 06:52:17 AM 49.7333 -95.3167 111° Southeast 530 610 39,000  Level Winnipeg Center
Mon 06:53:17 AM 49.7000 -95.0833 102° East 530 610 39,000  Level Winnipeg Center
Mon 06:54:17 AM 49.6500 -94.8667 110° East 530 610 39,000  Level Winnipeg Center
Mon 06:55:17 AM 49.5833 -94.6500 115° Southeast 530 610 39,000  Level Winnipeg Center
Mon 06:56:17 AM 49.5500 -94.4333 103° East 530 610 39,000  Level Winnipeg Center
Mon 06:57:17 AM 49.5167 -94.2333 104° East 520 598 39,000  Level Winnipeg Center
Mon 06:58:17 AM 49.4500 -94.0000 114° Southeast 520 598 39,000  Level Winnipeg Center
Mon 06:59:17 AM 49.4000 -93.8000 111° Southeast 520 598 39,000  Level Winnipeg Center
Mon 07:00:17 AM 49.3500 -93.5833 109° East 520 598 39,000  Level Winnipeg Center
Mon 07:01:17 AM 49.3000 -93.3667 109° East 530 610 39,000  Level Winnipeg Center
Mon 07:02:17 AM 49.2500 -93.1667 111° Southeast 520 598 39,000  Level Winnipeg Center
Mon 07:03:17 AM 49.1833 -92.9667 117° Southeast 530 610 39,000  Level Winnipeg Center
Mon 07:04:17 AM 49.1500 -92.7500 103° East 530 610 39,000  Level Winnipeg Center
Mon 07:05:17 AM 49.0833 -92.5500 117° Southeast 530 610 39,000  Level Winnipeg Center
Mon 07:06:17 AM 49.0333 -92.3167 108° East 530 610 39,000  Level Winnipeg Center
Mon 07:07:17 AM 48.9833 -92.1167 111° Southeast 530 610 39,000  Level Winnipeg Center
Mon 07:08:17 AM 48.9333 -91.9000 109° East 530 610 39,000  Level Winnipeg Center
Mon 07:09:17 AM 48.8667 -91.7000 117° Southeast 530 610 39,000  Level Winnipeg Center
Mon 07:10:17 AM 48.8333 -91.5000 104° East 520 598 39,000 50 Level Winnipeg Center
Mon 07:11:17 AM 48.7667 -91.3000 117° Southeast 520 598 39,100 400 Climbing Winnipeg Center
Mon 07:12:17 AM 48.7000 -91.0833 115° Southeast 510 587 39,800 500 Climbing Winnipeg Center
Mon 07:13:17 AM 48.6667 -90.9167 107° East 500 575 40,100 300 Climbing Winnipeg Center
Mon 07:14:17 AM 48.6000 -90.7167 117° Southeast 500 575 40,400 250 Climbing Winnipeg Center
Mon 07:15:17 AM 48.5500 -90.5167 111° Southeast 490 564 40,600 300 Climbing Winnipeg Center
Mon 07:16:17 AM 48.5000 -90.3500 114° Southeast 490 564 41,000 200 Climbing Winnipeg Center
Mon 07:17:17 AM 48.4500 -90.1500 111° Southeast 480 552 41,000  Level Winnipeg Center
Mon 07:18:17 AM 48.3833 -89.9667 119° Southeast 480 552 41,000  Level Winnipeg Center
Mon 07:19:17 AM 48.3333 -89.7667 111° Southeast 480 552 41,000  Level Winnipeg Center
Mon 07:20:17 AM 48.2833 -89.6000 114° Southeast 490 564 41,000  Level Winnipeg Center
Mon 07:21:17 AM 48.2333 -89.4000 111° Southeast 490 564 41,000  Level Winnipeg Center
Mon 07:22:17 AM 48.1667 -89.2167 119° Southeast 490 564 41,000 50 Level Winnipeg Center
Mon 07:23:17 AM 48.1000 -89.0167 116° Southeast 490 564 41,100  Climbing Winnipeg Center
Mon 07:24:17 AM 48.0667 -88.8500 107° East 490 564 41,000 -50 Descending Winnipeg Center
Mon 07:25:17 AM 48.0000 -88.6667 118° Southeast 490 564 41,000  Level Winnipeg Center
Mon 07:26:17 AM 47.9333 -88.5000 121° Southeast 500 575 41,000 50 Level Winnipeg Center
Mon 07:27:17 AM 47.8667 -88.2833 115° Southeast 500 575 41,100  Climbing Winnipeg Center
Mon 07:28:17 AM 47.8000 -88.1167 121° Southeast 500 575 41,000 -50 Descending Winnipeg Center
Mon 07:29:17 AM 47.7333 -87.9333 118° Southeast 500 575 41,000  Level Winnipeg Center
Mon 07:30:17 AM 47.6667 -87.7500 118° Southeast 510 587 41,000  Level Winnipeg Center
Mon 07:31:17 AM 47.6167 -87.5500 110° East 510 587 41,000  Level Winnipeg Center
Mon 07:32:17 AM 47.5333 -87.3667 124° Southeast 510 587 41,000  Level Winnipeg Center
Mon 07:33:17 AM 47.4833 -87.1833 112° Southeast 510 587 41,000  Level Winnipeg Center
Mon 07:34:17 AM 47.4167 -86.9833 116° Southeast 520 598 41,000 50 Level Winnipeg Center
Mon 07:35:17 AM 47.3500 -86.8167 121° Southeast 520 598 41,100  Climbing Winnipeg Center
Mon 07:36:17 AM 47.2667 -86.6167 121° Southeast 520 598 41,000 -50 Descending Winnipeg Center
Mon 07:37:17 AM 47.2167 -86.4167 110° East 520 598 41,000  Level Winnipeg Center
Mon 07:38:17 AM 47.1500 -86.2333 118° Southeast 530 610 41,000  Level Winnipeg Center
Mon 07:39:17 AM 47.0833 -86.0500 118° Southeast 520 598 41,000  Level Winnipeg Center
Mon 07:40:17 AM 47.0000 -85.8667 124° Southeast 530 610 41,000  Level Winnipeg Center
Mon 07:41:17 AM 46.9333 -85.6667 116° Southeast 530 610 41,000  Level Winnipeg Center
Mon 07:42:17 AM 46.8667 -85.4833 118° Southeast 530 610 41,000  Level Winnipeg Center
Mon 07:43:17 AM 46.7833 -85.3167 126° Southeast 530 610 41,000  Level Winnipeg Center
Mon 07:44:17 AM 46.7333 -85.1333 112° Southeast 520 598 41,000 -50 Level Winnipeg Center
Mon 07:45:17 AM 46.6500 -84.9500 123° Southeast 490 564 40,900  Descending Winnipeg Center
Mon 07:46:17 AM 46.5833 -84.7667 118° Southeast 480 552 41,000 50 Climbing Winnipeg Center
Mon 07:47:17 AM 46.5167 -84.6167 123° Southeast 480 552 41,000  Level Winnipeg Center
Mon 07:48:17 AM 46.4500 -84.4333 118° Southeast 500 575 41,000  Level Winnipeg Center
Mon 07:49:45 AM 46.3667 -84.2500 123° Southeast 480 552 41,000  Level Toronto Center
Mon 07:50:44 AM 46.2833 -84.1000 129° Southeast 470 541 41,000 -50 Level Toronto Center
Mon 07:51:45 AM 46.2167 -83.9500 123° Southeast 470 541 40,900  Descending Toronto Center
Mon 07:52:45 AM 46.1500 -83.7667 118° Southeast 470 541 41,000 50 Climbing Toronto Center
Mon 07:53:45 AM 46.0667 -83.6167 129° Southeast 470 541 41,000  Level Toronto Center
Mon 07:54:45 AM 45.9833 -83.4667 129° Southeast 480 552 41,000  Level Toronto Center
Mon 07:55:45 AM 45.9000 -83.3167 129° Southeast 480 552 41,000  Level Toronto Center
Mon 07:56:44 AM 45.8333 -83.1500 120° Southeast 480 552 41,000  Level Toronto Center
Mon 07:57:45 AM 45.7500 -83.0000 128° Southeast 480 552 41,000  Level Toronto Center
Mon 07:58:44 AM 45.6667 -82.8500 128° Southeast 480 552 41,000  Level Toronto Center
Mon 07:59:45 AM 45.5833 -82.7000 128° Southeast 470 541 41,000  Level Toronto Center
Mon 08:00:44 AM 45.5167 -82.5667 125° Southeast 460 529 41,000  Level Toronto Center
Mon 08:01:44 AM 45.4333 -82.4167 128° Southeast 450 518 41,000  Level Toronto Center
Mon 08:02:44 AM 45.3667 -82.2833 125° Southeast 440 506 41,000  Level Toronto Center
Mon 08:03:44 AM 45.3000 -82.1500 125° Southeast 440 506 41,000  Level Toronto Center
Mon 08:04:45 AM 45.2167 -82.0000 128° Southeast 440 506 41,000  Level Toronto Center
Mon 08:05:44 AM 45.1500 -81.8500 122° Southeast 440 506 41,000  Level Toronto Center
Mon 08:06:44 AM 45.0833 -81.7333 129° Southeast 450 518 41,000  Level Toronto Center
Mon 08:07:44 AM 45.0000 -81.5833 128° Southeast 450 518 41,000  Level Toronto Center
Mon 08:08:44 AM 44.9167 -81.4167 125° Southeast 460 529 41,000 -50 Level Toronto Center
Mon 08:09:45 AM 44.8500 -81.3000 129° Southeast 460 529 40,900 -400 Descending Toronto Center
Mon 08:10:44 AM 44.7500 -81.1333 130° Southeast 470 541 40,200 -1,664 Descending Toronto Center
Mon 08:11:44 AM 44.6667 -81.0000 131° Southeast 490 564 37,600 -3,250 Descending Toronto Center
Mon 08:12:44 AM 44.5833 -80.8500 128° Southeast 500 575 33,700 -4,350 Descending Toronto Center
Mon 08:13:44 AM 44.5000 -80.7000 128° Southeast 510 587 28,900 -4,463 Descending Toronto Center
Mon 08:14:45 AM 44.4167 -80.5667 131° Southeast 450 518 24,700 -4,100 Descending Toronto Center
Mon 08:15:44 AM 44.3500 -80.4500 129° Southeast 390 449 20,700 -3,580 Descending Toronto Center
Mon 08:16:44 AM 44.2833 -80.3500 133° Southeast 370 426 17,600 -3,350 Descending Toronto Center
Mon 08:17:44 AM 44.2000 -80.2333 135° Southeast 390 449 14,000 -3,300 Descending Toronto Center
Mon 08:18:44 AM 44.1333 -80.1500 138° Southeast 370 426 11,000 -3,150 Descending Toronto Center
Mon 08:19:44 AM 44.1000 -80.0333 112° Southeast 350 403 7,700 -3,150 Descending Toronto Center
Mon 08:20:44 AM 44.0500 -79.9167 121° Southeast 320 368 4,700 -2,350 Descending Toronto Center
Mon 08:21:44 AM 44.0333 -79.8000 101° East 300 345 3,000 -850 Descending Toronto Center
Mon 08:22:44 AM 44.0333 -79.6833 90° East 280 322 3,000  Level Toronto Center
Mon 08:23:44 AM 44.0167 -79.5833 103° East 250 288 3,000 -150 Level Toronto Center
Mon 08:24:44 AM 44.0000 -79.5167 109° East 220 253 2,700 -400 Descending Toronto Center
Mon 08:25:44 AM 43.9667 -79.4667 133° Southeast 200 230 2,200 -467 Descending Toronto Center
Mon 08:27:44 AM 43.8833 -79.3833 144° Southeast 170 196 1,300 -467 Descending Toronto Center
Mon 08:28:44 AM 43.8500 -79.3500 144° Southeast 140 161 800 -500 Descending Toronto Center

Login

Don't have an account? Register now (free) for customized features, flight alerts, and more!